Map

Track Data

SID SEASON NUMBER BASIN SUBBASIN NAME ISO_TIME NATURE LAT LON WMO_WIND WMO_PRES WMO_AGENCY TRACK_TYPE DIST2LAND LANDFALL IFLAG USA_AGENCY USA_ATCF_ID USA_LAT USA_LON USA_RECORD USA_STATUS USA_WIND USA_PRES USA_SSHS USA_R34_NE USA_R34_SE USA_R34_SW USA_R34_NW USA_R50_NE USA_R50_SE USA_R50_SW USA_R50_NW USA_R64_NE USA_R64_SE USA_R64_SW USA_R64_NW USA_POCI USA_ROCI USA_RMW USA_EYE TOKYO_LAT TOKYO_LON TOKYO_GRADE TOKYO_WIND TOKYO_PRES TOKYO_R50_DIR TOKYO_R50_LONG TOKYO_R50_SHORT TOKYO_R30_DIR TOKYO_R30_LONG TOKYO_R30_SHORT TOKYO_LAND CMA_LAT CMA_LON CMA_CAT CMA_WIND CMA_PRES HKO_LAT HKO_LON HKO_CAT HKO_WIND HKO_PRES NEWDELHI_LAT NEWDELHI_LON NEWDELHI_GRADE NEWDELHI_WIND NEWDELHI_PRES NEWDELHI_CI NEWDELHI_DP NEWDELHI_POCI REUNION_LAT REUNION_LON REUNION_TYPE REUNION_WIND REUNION_PRES REUNION_TNUM REUNION_CI REUNION_RMW REUNION_R34_NE REUNION_R34_SE REUNION_R34_SW REUNION_R34_NW REUNION_R50_NE REUNION_R50_SE REUNION_R50_SW REUNION_R50_NW REUNION_R64_NE REUNION_R64_SE REUNION_R64_SW REUNION_R64_NW BOM_LAT BOM_LON BOM_TYPE BOM_WIND BOM_PRES BOM_TNUM BOM_CI BOM_RMW BOM_R34_NE BOM_R34_SE BOM_R34_SW BOM_R34_NW BOM_R50_NE BOM_R50_SE BOM_R50_SW BOM_R50_NW BOM_R64_NE BOM_R64_SE BOM_R64_SW BOM_R64_NW BOM_ROCI BOM_POCI BOM_EYE BOM_POS_METHOD BOM_PRES_METHOD NADI_LAT NADI_LON NADI_CAT NADI_WIND NADI_PRES WELLINGTON_LAT WELLINGTON_LON WELLINGTON_WIND WELLINGTON_PRES DS824_LAT DS824_LON DS824_STAGE DS824_WIND DS824_PRES TD9636_LAT TD9636_LON TD9636_STAGE TD9636_WIND TD9636_PRES TD9635_LAT TD9635_LON TD9635_WIND TD9635_PRES TD9635_ROCI NEUMANN_LAT NEUMANN_LON NEUMANN_CLASS NEUMANN_WIND NEUMANN_PRES MLC_LAT MLC_LON MLC_CLASS MLC_WIND MLC_PRES USA_GUST BOM_GUST BOM_GUST_PER REUNION_GUST REUNION_GUST_PER USA_SEAHGT USA_SEARAD_NE USA_SEARAD_SE USA_SEARAD_SW USA_SEARAD_NW STORM_SPEED STORM_DIR
1981180N11257 1981 44 EP MM BEATRIZ 1981-06-28 18:00:00 TS 11.4000 -103.400 30 hurdat_epa main 705 702 O_________O___ hurdat_epa EP021981 11.4000 -103.400 TD 30 -1 11.4000 -103.400 1 30 10 283
1981180N11257 1981 44 EP MM BEATRIZ 1981-06-28 21:00:00 TS 11.5129 -103.900 main 715 715 P_________P___ EP021981 11.5152 -103.902 TD 30 -1 11.5061 -103.895 1 30 10 282
1981180N11257 1981 44 EP MM BEATRIZ 1981-06-29 00:00:00 TS 11.6000 -104.400 30 hurdat_epa main 730 730 O_________O___ hurdat_epa EP021981 11.6000 -104.400 TD 30 -1 11.6000 -104.400 1 30 10 278
1981180N11257 1981 44 EP MM BEATRIZ 1981-06-29 03:00:00 TS 11.6508 -104.900 main 747 747 P_________P___ EP021981 11.6424 -104.893 TD 32 -1 11.6761 -104.922 1 32 10 277
1981180N11257 1981 44 EP MM BEATRIZ 1981-06-29 06:00:00 TS 11.7130 -105.414 35 hurdat_epa main 765 761 O_________P___ hurdat_epa EP021981 11.7000 -105.400 TS 35 0 11.7522 -105.454 1 35 11 280
1981180N11257 1981 44 EP MM BEATRIZ 1981-06-29 09:00:00 TS 11.8337 -105.958 main 775 765 P_________P___ EP021981 11.8275 -105.950 TS 37 0 11.8522 -105.984 1 37 11 285
1981180N11257 1981 44 EP MM BEATRIZ 1981-06-29 12:00:00 TS 12.0000 -106.500 40 hurdat_epa main 775 774 O_________O___ hurdat_epa EP021981 12.0000 -106.500 TS 40 0 12.0000 -106.500 2 40 11 289
1981180N11257 1981 44 EP MM BEATRIZ 1981-06-29 15:00:00 TS 12.1805 -107.014 main 779 779 P_________P___ EP021981 12.1699 -107.015 TS 42 0 12.2124 -107.010 2 42 11 293
1981180N11257 1981 44 EP MM BEATRIZ 1981-06-29 18:00:00 TS 12.4187 -107.501 45 hurdat_epa main 787 780 O_________P___ hurdat_epa EP021981 12.4000 -107.500 TS 45 0 12.4749 -107.502 2 45 11 301
1981180N11257 1981 44 EP MM BEATRIZ 1981-06-29 21:00:00 TS 12.7393 -107.972 main 790 777 P_________P___ EP021981 12.7275 -107.972 TS 47 0 12.7749 -107.969 2 47 11 308
1981180N11257 1981 44 EP MM BEATRIZ 1981-06-30 00:00:00 TS 13.1000 -108.400 50 hurdat_epa main 783 771 O_________O___ hurdat_epa EP021981 13.1000 -108.400 TS 50 0 13.1000 -108.400 2 50 11 312
1981180N11257 1981 44 EP MM BEATRIZ 1981-06-30 03:00:00 TS 13.4447 -108.773 main 776 758 P_________P___ EP021981 13.4499 -108.765 TS 52 0 13.4292 -108.795 2 51 10 315
1981180N11257 1981 44 EP MM BEATRIZ 1981-06-30 06:00:00 TS 13.7948 -109.114 55 hurdat_epa main 758 752 O_________P___ hurdat_epa EP021981 13.8000 -109.100 TS 55 0 13.7792 -109.155 2 52 10 316
1981180N11257 1981 44 EP MM BEATRIZ 1981-06-30 09:00:00 TS 14.1474 -109.465 main 759 748 P_________P___ EP021981 14.1500 -109.458 TS 55 0 14.1396 -109.487 2 53 10 317
1981180N11257 1981 44 EP MM BEATRIZ 1981-06-30 12:00:00 TS 14.5000 -109.800 55 hurdat_epa main 748 739 O_________O___ hurdat_epa EP021981 14.5000 -109.800 TS 55 0 14.5000 -109.800 2 55 10 321
1981180N11257 1981 44 EP MM BEATRIZ 1981-06-30 15:00:00 TS 14.8958 -110.084 main 739 731 P_________P___ EP021981 14.8948 -110.085 TS 60 0 14.8987 -110.080 2 60 9 320
1981180N11257 1981 44 EP MM BEATRIZ 1981-06-30 18:00:00 TS 15.2000 -110.400 65 hurdat_epa main 739 739 O_________O___ hurdat_epa EP021981 15.2000 -110.400 HU 65 1 15.2000 -110.400 3 65 8 299
1981180N11257 1981 44 EP MM BEATRIZ 1981-06-30 21:00:00 TS 15.2867 -110.829 main 763 763 P_________P___ EP021981 15.2875 -110.828 HU 65 1 15.2843 -110.831 3 65 9 277
1981180N11257 1981 44 EP MM BEATRIZ 1981-07-01 00:00:00 TS 15.3000 -111.300 65 hurdat_epa main 804 804 O_________O___ hurdat_epa EP021981 15.3000 -111.300 HU 65 1 15.3000 -111.300 4 65 9 276
1981180N11257 1981 44 EP MM BEATRIZ 1981-07-01 03:00:00 TS 15.3787 -111.756 main 840 840 P_________P___ EP021981 15.3625 -111.765 HU 67 1 15.4274 -111.730 4 67 9 285
1981180N11257 1981 44 EP MM BEATRIZ 1981-07-01 06:00:00 TS 15.5278 -112.185 70 hurdat_epa main 859 836 O_________P___ hurdat_epa EP021981 15.5000 -112.200 HU 70 1 15.6112 -112.141 4 70 9 298
1981180N11257 1981 44 EP MM BEATRIZ 1981-07-01 09:00:00 TS 15.7929 -112.557 main 839 815 P_________P___ EP021981 15.7774 -112.565 HU 72 1 15.8394 -112.532 4 72 9 310
1981180N11257 1981 44 EP MM BEATRIZ 1981-07-01 12:00:00 TS 16.1000 -112.900 75 hurdat_epa main 819 806 O_________O___ hurdat_epa EP021981 16.1000 -112.900 HU 75 1 16.1000 -112.900 4 75 9 310
1981180N11257 1981 44 EP MM BEATRIZ 1981-07-01 15:00:00 TS 16.3486 -113.256 main 815 794 P_________P___ EP021981 16.3425 -113.258 HU 72 1 16.3669 -113.251 4 75 8 308
1981180N11257 1981 44 EP MM BEATRIZ 1981-07-01 18:00:00 TS 16.6155 -113.595 70 hurdat_epa main 798 779 O_________P___ hurdat_epa EP021981 16.6000 -113.600 HU 70 1 16.6622 -113.580 4 75 9 314
1981180N11257 1981 44 EP MM BEATRIZ 1981-07-01 21:00:00 TS 16.9509 -113.904 main 775 764 P_________P___ EP021981 16.9424 -113.908 HU 72 1 16.9763 -113.895 4 75 9 320
1981180N11257 1981 44 EP MM BEATRIZ 1981-07-02 00:00:00 TS 17.3000 -114.200 75 hurdat_epa main 764 749 O_________O___ hurdat_epa EP021981 17.3000 -114.200 HU 75 1 17.3000 -114.200 4 75 9 319
1981180N11257 1981 44 EP MM BEATRIZ 1981-07-02 03:00:00 TS 17.6054 -114.499 main 755 743 P_________P___ EP021981 17.6000 -114.500 HU 75 1 17.6215 -114.495 4 75 8 317
1981180N11257 1981 44 EP MM BEATRIZ 1981-07-02 06:00:00 TS 17.9124 -114.796 75 hurdat_epa main 750 739 O_________P___ hurdat_epa EP021981 17.9000 -114.800 HU 75 1 17.9495 -114.786 4 75 9 319
1981180N11257 1981 44 EP MM BEATRIZ 1981-07-02 09:00:00 TS 18.2568 -115.085 main 738 738 P_________P___ EP021981 18.2499 -115.085 HU 75 1 18.2778 -115.083 4 75 9 320
1981180N11257 1981 44 EP MM BEATRIZ 1981-07-02 12:00:00 TS 18.6000 -115.400 75 hurdat_epa main 739 739 O_________O___ hurdat_epa EP021981 18.6000 -115.400 HU 75 1 18.6000 -115.400 4 75 9 314
1981180N11257 1981 44 EP MM BEATRIZ 1981-07-02 15:00:00 TS 18.9054 -115.783 main 750 740 P_________P___ EP021981 18.9075 -115.793 HU 72 1 18.8990 -115.754 4 72 10 309
1981180N11257 1981 44 EP MM BEATRIZ 1981-07-02 18:00:00 TS 19.1981 -116.182 70 hurdat_epa main 746 736 O_________P___ hurdat_epa EP021981 19.2000 -116.200 HU 70 1 19.1925 -116.128 4 70 9 309
1981180N11257 1981 44 EP MM BEATRIZ 1981-07-02 21:00:00 TS 19.4973 -116.547 main 736 732 P_________P___ EP021981 19.4999 -116.558 HU 67 1 19.4896 -116.513 4 67 9 312
1981180N11257 1981 44 EP MM BEATRIZ 1981-07-03 00:00:00 TS 19.8000 -116.900 65 hurdat_epa main 737 734 O_________O___ hurdat_epa EP021981 19.8000 -116.900 HU 65 1 19.8000 -116.900 4 65 9 312
1981180N11257 1981 44 EP MM BEATRIZ 1981-07-03 03:00:00 TS 20.0975 -117.250 main 734 733 P_________P___ EP021981 20.0849 -117.243 HU 62 0 20.1353 -117.271 4 62 9 313
1981180N11257 1981 44 EP MM BEATRIZ 1981-07-03 06:00:00 TS 20.4211 -117.611 60 hurdat_epa main 740 734 O_________P___ hurdat_epa EP021981 20.4000 -117.600 TS 60 0 20.4846 -117.643 4 60 10 315
1981180N11257 1981 44 EP MM BEATRIZ 1981-07-03 09:00:00 TS 20.8047 -117.999 main 743 743 P_________P___ EP021981 20.7925 -117.992 TS 57 0 20.8416 -118.018 4 57 11 317
1981180N11257 1981 44 EP MM BEATRIZ 1981-07-03 12:00:00 TS 21.2000 -118.400 55 hurdat_epa main 751 751 O_________O___ hurdat_epa EP021981 21.2000 -118.400 TS 55 0 21.2000 -118.400 2 55 11 315
1981180N11257 1981 44 EP MM BEATRIZ 1981-07-03 15:00:00 TS 21.5505 -118.803 main 763 761 P_________P___ EP021981 21.5574 -118.800 TS 50 0 21.5297 -118.810 2 51 10 313
1981180N11257 1981 44 EP MM BEATRIZ 1981-07-03 18:00:00 TS 21.8907 -119.206 45 hurdat_epa main 765 759 O_________P___ hurdat_epa EP021981 21.9000 -119.200 TS 45 0 21.8626 -119.223 2 47 10 312
1981180N11257 1981 44 EP MM BEATRIZ 1981-07-03 21:00:00 TS 22.2298 -119.612 main 766 759 P_________P___ EP021981 22.2350 -119.608 TS 42 0 22.2142 -119.625 2 43 10 314
1981180N11257 1981 44 EP MM BEATRIZ 1981-07-04 00:00:00 TS 22.6000 -120.000 40 hurdat_epa main 759 747 O_________O___ hurdat_epa EP021981 22.6000 -120.000 TS 40 0 22.6000 -120.000 2 40 11 319
1981180N11257 1981 44 EP MM BEATRIZ 1981-07-04 03:00:00 TS 23.0294 -120.370 main 754 738 P_________P___ EP021981 23.0275 -120.373 TS 37 0 23.0352 -120.360 2 36 11 325
1981180N11257 1981 44 EP MM BEATRIZ 1981-07-04 06:00:00 TS 23.5014 -120.697 35 hurdat_epa main 738 726 O_________P___ hurdat_epa EP021981 23.5000 -120.700 TS 35 0 23.5055 -120.688 2 32 11 330
1981180N11257 1981 44 EP MM BEATRIZ 1981-07-04 09:00:00 TS 23.9939 -120.978 main 728 711 P_________P___ EP021981 23.9924 -120.980 TS 30 -1 23.9981 -120.972 2 28 11 335
1981180N11257 1981 44 EP MM BEATRIZ 1981-07-04 12:00:00 TS 24.5000 -121.200 25 hurdat_epa main 714 700 O_________O___ hurdat_epa EP021981 24.5000 -121.200 TD 25 -1 24.5000 -121.200 1 25 11 341
1981180N11257 1981 44 EP MM BEATRIZ 1981-07-04 15:00:00 TS 25.0021 -121.365 main 704 690 P_________P___ EP021981 25.0025 -121.365 TD 25 -1 25.0009 -121.367 1 25 10 345
1981180N11257 1981 44 EP MM BEATRIZ 1981-07-04 18:00:00 TS 25.5000 -121.500 25 hurdat_epa main 690 O_________O___ hurdat_epa EP021981 25.5000 -121.500 TD 25 -1 25.5000 -121.500 1 25 10 347

About IBTrACS Database

This database is a web-friendly format of International Best Track Archive for Climate Stewardship (IBTrACS), a global best track data archive curated by NOAA dating back to 1842.

Updated: 2021-11-26